Natural Bridges, Utah
Current Conditions -  °F | °C
As of 3:35 AM on Wednesday 22 Oct 2014 (Local Time) from KBDG Reporting Station
Clear Clear  
Wind Chill: 48°   Ceiling: Unl
Heat Index: 50°   Visibility: 10mi
Dew Point: 40°   Wind: 6mph
Humidity: 69%   Direction: 50°NE
Pressure: 30.16"   Gusts: NA
Location:  37.6208°N, 109.479°W
Report Text: KBDG 220935Z AUTO 05005KT 10SM CLR 10/05 A3016 RMK AO1 T00990045
Loading
Personal Weather Stations






























Interactive Weather Map
Tropical Storm Tracking
New forecast layout! Learn more

10-Day Weather Forecast

Advertisements
Track Severe Weather on mobile